Time;durP1;ratioP1;P1;durP2;ratioP2;P2;SDS_P1;SDS_P2;PMS_P1;PMS_P2;Temp;Humidity;BMP_temperature;BMP_pressure;BME280_temperature;BME280_humidity;BME280_pressure;Samples;Min_cycle;Max_cycle;Signal;HPM_P1;HPM_P2
2021/07/15 00:01:37;;;;;;;9.40;4.15;;;18.50;96.80;;;;;;5028309;28;20053;-84
2021/07/15 00:04:05;;;;;;;8.07;3.75;;;18.50;97.10;;;;;;5032521;28;20056;-85
2021/07/15 00:06:36;;;;;;;;;;;18.40;97.20;;;;;;5050880;28;20052;-86
2021/07/15 00:09:12;;;;;;;6.40;3.92;;;18.40;97.80;;;;;;5044528;28;19925;-85
2021/07/15 00:11:44;;;;;;;7.75;3.67;;;18.40;97.10;;;;;;5042373;28;20053;-85
2021/07/15 00:14:14;;;;;;;6.13;3.63;;;18.30;97.20;;;;;;5006716;28;20057;-83
2021/07/15 00:16:43;;;;;;;5.63;3.00;;;18.30;97.40;;;;;;5035935;28;20055;-86
2021/07/15 00:19:15;;;;;;;7.00;3.17;;;18.30;97.70;;;;;;5026565;28;20061;-86
2021/07/15 00:21:45;;;;;;;10.18;3.75;;;18.20;97.80;;;;;;5040764;28;20053;-86
2021/07/15 00:24:17;;;;;;;7.95;4.25;;;18.20;97.70;;;;;;5021525;28;20045;-83
2021/07/15 00:26:45;;;;;;;7.43;4.15;;;18.20;97.70;;;;;;5007221;28;20053;-86
2021/07/15 00:29:16;;;;;;;11.00;4.53;;;18.10;97.80;;;;;;5006049;28;20061;-84
2021/07/15 00:31:45;;;;;;;9.85;3.78;;;18.10;97.80;;;;;;5038492;28;20045;-84
2021/07/15 00:34:13;;;;;;;7.28;3.55;;;18.00;97.90;;;;;;5019929;28;20045;-85
2021/07/15 00:36:42;;;;;;;5.85;3.80;;;18.00;98.10;;;;;;5020424;28;20069;-86
2021/07/15 00:39:10;;;;;;;8.90;3.78;;;18.00;98.20;;;;;;5019044;28;20041;-84
2021/07/15 00:41:38;;;;;;;6.57;3.55;;;17.90;98.40;;;;;;5020860;28;20053;-85
2021/07/15 00:44:06;;;;;;;6.85;3.63;;;17.90;98.40;;;;;;5018405;28;20604;-84
2021/07/15 00:46:35;;;;;;;9.45;4.63;;;17.90;98.30;;;;;;4999464;28;20054;-87
2021/07/15 00:49:03;;;;;;;6.28;3.80;;;17.90;98.50;;;;;;4983480;28;20050;-85
2021/07/15 00:51:31;;;;;;;8.57;4.60;;;17.80;98.50;;;;;;5002883;28;20059;-85
2021/07/15 00:54:00;;;;;;;4.50;3.53;;;17.80;98.50;;;;;;5038397;28;20057;-86
2021/07/15 00:56:28;;;;;;;6.30;3.67;;;17.80;98.60;;;;;;4993148;28;20073;-86
2021/07/15 00:58:57;;;;;;;8.73;3.50;;;17.80;98.90;;;;;;5004508;28;20042;-84
2021/07/15 01:01:26;;;;;;;6.25;3.90;;;17.70;99.10;;;;;;5020756;28;20041;-87
2021/07/15 01:04:10;;;;;;;9.05;3.22;;;17.70;98.80;;;;;;5023362;28;20037;-89
2021/07/15 01:06:40;;;;;;;13.07;4.30;;;17.70;98.80;;;;;;5022349;28;20041;-85
2021/07/15 01:09:07;;;;;;;8.90;3.55;;;17.60;99.00;;;;;;5021070;28;20062;-85
2021/07/15 01:12:29;;;;;;;7.72;4.43;;;17.60;99.00;;;;;;5002981;28;20563;-85
2021/07/15 01:15:12;;;;;;;10.13;4.78;;;17.60;99.50;;;;;;4950958;28;20051;-86
2021/07/15 01:17:55;;;;;;;8.13;3.83;;;17.50;99.20;;;;;;5037513;28;20056;-85
2021/07/15 01:20:54;;;;;;;10.25;4.40;;;17.50;99.30;;;;;;5028829;28;20056;-85
2021/07/15 01:23:59;;;;;;;6.97;3.75;;;17.50;99.80;;;;;;5020118;28;20053;-86
2021/07/15 01:27:01;;;;;;;7.85;3.90;;;17.40;99.60;;;;;;5018705;28;20064;-85
2021/07/15 01:30:00;;;;;;;7.93;3.80;;;17.40;99.70;;;;;;5036505;28;20046;-85
2021/07/15 01:32:32;;;;;;;6.57;4.38;;;17.40;99.80;;;;;;5002357;28;20064;-86
2021/07/15 01:35:05;;;;;;;11.57;3.78;;;17.40;99.60;;;;;;5024226;28;20053;-85
2021/07/15 01:37:33;;;;;;;11.23;4.05;;;17.30;99.70;;;;;;5041195;28;20059;-84
2021/07/15 01:40:03;;;;;;;9.88;4.40;;;17.30;99.90;;;;;;5024708;28;20030;-84
2021/07/15 01:42:34;;;;;;;10.70;4.75;;;17.20;99.90;;;;;;5025249;28;20059;-86
2021/07/15 01:45:02;;;;;;;6.67;4.30;;;17.20;99.90;;;;;;5043221;28;20041;-84
2021/07/15 01:47:31;;;;;;;11.85;4.50;;;17.20;99.90;;;;;;5007083;28;20046;-84
2021/07/15 01:50:00;;;;;;;10.50;4.25;;;17.20;99.90;;;;;;5019388;28;20053;-85
2021/07/15 01:52:29;;;;;;;7.70;3.58;;;17.20;99.90;;;;;;5020721;28;20060;-87
2021/07/15 01:55:00;;;;;;;6.35;3.58;;;17.10;99.90;;;;;;5022376;28;20053;-85
2021/07/15 01:57:29;;;;;;;11.32;4.65;;;17.10;99.90;;;;;;5013921;28;20045;-85
2021/07/15 01:59:58;;;;;;;7.65;4.45;;;17.10;99.90;;;;;;5038401;28;20643;-85
2021/07/15 02:02:28;;;;;;;9.23;4.32;;;17.10;99.90;;;;;;5020066;28;20042;-86
2021/07/15 02:04:57;;;;;;;6.63;3.75;;;17.00;99.90;;;;;;5002811;28;20053;-87
2021/07/15 02:07:27;;;;;;;6.10;3.28;;;17.00;99.90;;;;;;5018650;28;20044;-86
2021/07/15 02:09:57;;;;;;;7.38;4.45;;;17.00;99.90;;;;;;5017299;28;20041;-87
2021/07/15 02:12:25;;;;;;;8.50;3.72;;;16.90;99.90;;;;;;5006486;28;20046;-84
2021/07/15 02:14:54;;;;;;;6.30;4.07;;;16.90;99.90;;;;;;5020335;28;20049;-87
2021/07/15 02:17:23;;;;;;;6.28;3.92;;;16.90;99.90;;;;;;5037052;28;20050;-86
2021/07/15 02:19:53;;;;;;;10.65;3.78;;;16.90;99.90;;;;;;5020573;28;20050;-86
2021/07/15 02:22:22;;;;;;;7.38;4.18;;;16.90;99.90;;;;;;5002302;28;20053;-87
2021/07/15 02:24:51;;;;;;;8.32;4.45;;;16.80;99.90;;;;;;5039275;28;20045;-87
2021/07/15 02:27:21;;;;;;;10.48;3.78;;;16.80;99.90;;;;;;5004146;28;20084;-86
2021/07/15 02:29:49;;;;;;;7.90;3.83;;;16.80;99.90;;;;;;5038116;28;20049;-86
2021/07/15 02:32:18;;;;;;;9.32;4.35;;;16.50;99.90;;;;;;4990751;28;20049;-86
2021/07/15 02:35:13;;;;;;;10.23;4.28;;;16.70;99.90;;;;;;5020539;28;20397;-87
2021/07/15 02:37:42;;;;;;;8.80;4.05;;;16.70;99.90;;;;;;5038711;28;20045;-86
2021/07/15 02:40:14;;;;;;;7.97;4.63;;;16.60;99.90;;;;;;5041299;28;20041;-85
2021/07/15 02:42:44;;;;;;;;;;;16.70;99.90;;;;;;5042800;28;20052;-86
2021/07/15 02:45:17;;;;;;;8.90;4.95;;;16.60;99.90;;;;;;5042982;28;19932;-88
2021/07/15 02:47:47;;;;;;;8.68;4.47;;;16.60;99.90;;;;;;5024120;28;20046;-84
2021/07/15 02:50:18;;;;;;;6.55;3.75;;;16.60;99.90;;;;;;5024977;28;20056;-84
2021/07/15 02:52:51;;;;;;;10.88;4.15;;;16.60;99.90;;;;;;5026031;28;20050;-86
2021/07/15 02:55:21;;;;;;;13.00;5.95;;;16.50;99.90;;;;;;5043375;28;20081;-86
2021/07/15 02:58:04;;;;;;;8.60;5.00;;;16.50;99.90;;;;;;5019957;28;20056;-84
2021/07/15 03:00:49;;;;;;;11.23;5.53;;;16.50;99.90;;;;;;5018059;28;20049;-86
2021/07/15 03:03:27;;;;;;;9.00;5.18;;;16.50;99.90;;;;;;5022498;28;20493;-87
2021/07/15 03:06:03;;;;;;;9.48;4.85;;;16.40;99.90;;;;;;5014973;28;20056;-86
2021/07/15 03:08:34;;;;;;;7.90;4.45;;;16.40;99.90;;;;;;5014546;28;20046;-88
2021/07/15 03:11:05;;;;;;;5.43;3.75;;;16.40;99.90;;;;;;5027395;28;20058;-86
2021/07/15 03:13:34;;;;;;;8.90;3.95;;;16.40;99.90;;;;;;5045291;28;20053;-85
2021/07/15 03:16:03;;;;;;;13.38;6.32;;;16.40;99.90;;;;;;4995904;28;20060;-86
2021/07/15 03:18:35;;;;;;;9.13;4.93;;;16.40;99.90;;;;;;5045649;28;20049;-86
2021/07/15 03:21:05;;;;;;;8.85;4.10;;;16.40;99.90;;;;;;5026287;28;20060;-87
2021/07/15 03:23:36;;;;;;;7.20;4.28;;;16.30;99.90;;;;;;5016595;28;20051;-88
2021/07/15 03:26:07;;;;;;;8.25;4.18;;;16.30;99.90;;;;;;5029754;28;20042;-88
2021/07/15 03:28:38;;;;;;;5.93;4.20;;;16.30;99.90;;;;;;5048657;28;20112;-87
2021/07/15 03:31:11;;;;;;;11.60;4.85;;;16.30;99.90;;;;;;5013481;28;20076;-87
2021/07/15 03:33:44;;;;;;;8.07;4.43;;;16.20;99.90;;;;;;5047571;28;20060;-87
2021/07/15 03:36:13;;;;;;;9.30;3.92;;;16.20;99.90;;;;;;5032280;28;20037;-89
2021/07/15 03:38:45;;;;;;;8.75;4.43;;;16.20;99.90;;;;;;5033867;28;20060;-89
2021/07/15 03:41:16;;;;;;;8.77;4.25;;;15.50;99.90;;;;;;5027644;28;20053;-90
2021/07/15 03:43:45;;;;;;;7.78;4.03;;;16.20;99.90;;;;;;5011661;28;20060;-89
2021/07/15 03:46:15;;;;;;;10.25;4.75;;;16.20;99.90;;;;;;5030067;28;20060;-88
2021/07/15 03:48:47;;;;;;;9.48;4.88;;;16.20;99.90;;;;;;5026288;28;20054;-87
2021/07/15 03:51:21;;;;;;;9.45;4.68;;;16.20;99.90;;;;;;5021008;28;20041;-87
2021/07/15 03:53:51;;;;;;;5.60;3.88;;;16.20;99.90;;;;;;5043281;28;20046;-86
2021/07/15 03:56:21;;;;;;;8.57;4.85;;;16.20;99.90;;;;;;5027403;28;20341;-87
2021/07/15 03:59:01;;;;;;;8.93;4.45;;;16.20;99.90;;;;;;5028845;28;20049;-85
2021/07/15 04:01:34;;;;;;;7.07;4.15;;;16.20;99.90;;;;;;5027010;28;20052;-85
2021/07/15 04:04:08;;;;;;;9.02;4.28;;;16.10;99.90;;;;;;5026521;28;20049;-84
2021/07/15 04:06:39;;;;;;;9.20;4.70;;;16.10;99.90;;;;;;5007412;28;20053;-86
2021/07/15 04:09:10;;;;;;;10.75;4.55;;;16.20;99.90;;;;;;5038497;28;20053;-86
2021/07/15 04:11:45;;;;;;;8.95;5.03;;;16.10;99.90;;;;;;5041188;28;20042;-86
2021/07/15 04:14:21;;;;;;;9.07;4.35;;;16.10;99.90;;;;;;5026422;28;20045;-84
2021/07/15 04:17:05;;;;;;;8.38;5.15;;;16.10;99.90;;;;;;5026540;28;20045;-85
2021/07/15 04:19:38;;;;;;;8.95;3.80;;;16.10;99.90;;;;;;5025946;28;20587;-84
2021/07/15 04:22:12;;;;;;;8.23;4.93;;;16.10;99.90;;;;;;5007241;28;20052;-85
2021/07/15 04:24:43;;;;;;;7.30;3.60;;;16.10;99.90;;;;;;5002004;28;20413;-85
2021/07/15 04:27:15;;;;;;;10.67;5.00;;;16.10;99.90;;;;;;5008844;28;20056;-85
2021/07/15 04:29:44;;;;;;;7.05;4.07;;;16.10;99.90;;;;;;5026221;28;20298;-85
2021/07/15 04:32:30;;;;;;;9.07;4.78;;;16.10;99.90;;;;;;5041301;28;20041;-85
2021/07/15 04:35:04;;;;;;;9.93;4.68;;;16.10;99.90;;;;;;5042898;28;20037;-85
2021/07/15 04:37:35;;;;;;;5.68;3.92;;;15.20;99.90;;;;;;5022682;28;20512;-85
2021/07/15 04:40:13;;;;;;;8.50;4.60;;;16.10;99.90;;;;;;5023543;28;20053;-87
2021/07/15 04:42:44;;;;;;;6.47;4.40;;;16.20;99.90;;;;;;5008229;28;20068;-86
2021/07/15 04:45:54;;;;;;;7.80;4.45;;;16.10;99.90;;;;;;5042226;28;20053;-85
2021/07/15 04:48:27;;;;;;;8.57;4.38;;;16.20;99.90;;;;;;5040934;28;20037;-84
2021/07/15 04:50:57;;;;;;;10.18;5.03;;;16.20;99.90;;;;;;5037409;28;20485;-85
2021/07/15 04:53:31;;;;;;;10.70;4.70;;;16.20;99.90;;;;;;5024255;28;20061;-85
2021/07/15 04:56:07;;;;;;;13.00;5.28;;;16.30;99.90;;;;;;5042458;28;20057;-85
2021/07/15 04:58:37;;;;;;;7.57;4.40;;;16.30;99.90;;;;;;5041742;28;20064;-84
2021/07/15 05:01:11;;;;;;;6.15;3.72;;;16.30;99.90;;;;;;5024322;28;20038;-85
2021/07/15 05:03:43;;;;;;;8.82;4.55;;;16.40;99.90;;;;;;5024754;28;20049;-86
2021/07/15 05:06:14;;;;;;;7.10;4.63;;;16.40;99.90;;;;;;5030230;28;20062;-85
2021/07/15 05:08:46;;;;;;;6.75;4.20;;;16.40;99.90;;;;;;5013762;28;20057;-85
2021/07/15 05:11:16;;;;;;;6.70;3.85;;;16.50;99.90;;;;;;5046190;28;20050;-85
2021/07/15 05:13:50;;;;;;;9.32;4.90;;;16.50;99.90;;;;;;5029155;28;20271;-84
2021/07/15 05:16:18;;;;;;;8.95;4.40;;;16.60;99.90;;;;;;5029039;28;20060;-85
2021/07/15 05:18:46;;;;;;;9.35;5.13;;;16.60;99.90;;;;;;5027744;28;20045;-86
2021/07/15 05:21:16;;;;;;;10.60;4.72;;;16.70;99.90;;;;;;5042854;28;20049;-86
2021/07/15 05:23:48;;;;;;;9.90;4.93;;;16.80;99.90;;;;;;5007543;28;20054;-85
2021/07/15 05:26:20;;;;;;;7.57;3.92;;;16.80;99.90;;;;;;5010614;28;20051;-86
2021/07/15 05:28:49;;;;;;;7.95;4.53;;;16.80;99.90;;;;;;5005357;28;20053;-85
2021/07/15 05:31:21;;;;;;;8.88;3.47;;;16.90;99.90;;;;;;5019979;28;20509;-87
2021/07/15 05:33:50;;;;;;;5.28;3.30;;;16.90;99.90;;;;;;5022257;28;20062;-85
2021/07/15 05:36:21;;;;;;;8.40;3.50;;;17.00;99.90;;;;;;4988494;28;20054;-84
2021/07/15 05:38:59;;;;;;;9.13;4.55;;;17.10;99.90;;;;;;5004829;28;20064;-85
2021/07/15 05:41:33;;;;;;;;;;;17.20;99.90;;;;;;4991763;28;20064;-85
2021/07/15 05:44:03;;;;;;;6.78;3.45;;;17.20;99.90;;;;;;5029288;28;19925;-85
2021/07/15 05:46:33;;;;;;;5.32;3.55;;;17.30;99.90;;;;;;5023915;28;20046;-84
2021/07/15 05:49:02;;;;;;;4.97;3.03;;;17.40;99.90;;;;;;4994362;28;20056;-84
2021/07/15 05:51:31;;;;;;;5.80;3.05;;;17.40;99.90;;;;;;4959875;28;20058;-86
2021/07/15 05:54:01;;;;;;;10.82;4.47;;;17.50;99.90;;;;;;4988020;28;20054;-86
2021/07/15 05:56:31;;;;;;;8.98;3.38;;;17.50;99.90;;;;;;4980397;28;20050;-85
2021/07/15 05:58:59;;;;;;;7.80;2.88;;;17.60;99.90;;;;;;4989229;28;20066;-87
2021/07/15 06:01:28;;;;;;;7.80;3.33;;;17.60;99.90;;;;;;4987524;28;20072;-86
2021/07/15 06:03:58;;;;;;;11.00;3.95;;;17.70;99.90;;;;;;4982731;28;20050;-86
2021/07/15 06:06:26;;;;;;;9.80;5.20;;;17.70;99.90;;;;;;5003309;28;20054;-86
2021/07/15 06:08:56;;;;;;;7.00;3.60;;;17.70;99.90;;;;;;5018240;28;20046;-82
2021/07/15 06:11:25;;;;;;;5.13;3.15;;;17.70;99.90;;;;;;4998105;28;20061;-85
2021/07/15 06:13:53;;;;;;;8.23;3.88;;;17.80;99.90;;;;;;5001257;28;20042;-83
2021/07/15 06:16:23;;;;;;;7.93;3.45;;;17.80;99.90;;;;;;4989956;28;20505;-86
2021/07/15 06:18:54;;;;;;;9.63;3.08;;;17.80;99.90;;;;;;4984597;28;20069;-84
2021/07/15 06:21:22;;;;;;;7.57;3.85;;;17.90;99.90;;;;;;4998345;28;20046;-86
2021/07/15 06:23:50;;;;;;;7.10;4.18;;;17.90;99.90;;;;;;4997979;28;20054;-85
2021/07/15 06:26:19;;;;;;;4.82;2.55;;;17.90;99.90;;;;;;5015134;28;20424;-84
2021/07/15 06:28:47;;;;;;;5.50;3.28;;;18.00;99.90;;;;;;5001932;28;20049;-87
2021/07/15 06:31:17;;;;;;;6.80;3.10;;;18.10;99.90;;;;;;5033057;28;20042;-88
2021/07/15 06:33:45;;;;;;;7.65;2.58;;;18.10;99.90;;;;;;5002712;28;20054;-86
2021/07/15 06:36:13;;;;;;;5.35;3.03;;;18.20;99.90;;;;;;5003273;28;20045;-84
2021/07/15 06:38:41;;;;;;;5.60;3.20;;;18.20;99.90;;;;;;5004946;28;20064;-89
2021/07/15 06:41:13;;;;;;;8.63;3.10;;;18.20;99.90;;;;;;5006470;28;20056;-85
2021/07/15 06:43:46;;;;;;;8.43;3.75;;;18.30;99.90;;;;;;5001786;28;20045;-87
2021/07/15 06:46:22;;;;;;;9.85;4.00;;;18.40;99.90;;;;;;5030451;28;20052;-83
2021/07/15 06:48:54;;;;;;;5.38;3.13;;;18.40;99.90;;;;;;5024753;28;20042;-85
2021/07/15 06:51:23;;;;;;;6.07;2.78;;;18.50;99.90;;;;;;5002260;28;20053;-85
2021/07/15 06:53:52;;;;;;;6.35;2.75;;;18.50;99.90;;;;;;5037602;28;20050;-87
2021/07/15 06:56:21;;;;;;;8.82;3.67;;;18.60;99.90;;;;;;5014035;28;20050;-84
2021/07/15 06:58:49;;;;;;;6.57;3.20;;;18.70;99.90;;;;;;5016724;28;20056;-86
2021/07/15 07:01:21;;;;;;;9.07;3.13;;;18.70;99.90;;;;;;5033335;22;20066;-87
2021/07/15 07:03:59;;;;;;;9.93;3.22;;;18.80;99.90;;;;;;4965408;29;20051;-81
2021/07/15 07:06:30;;;;;;;6.35;2.42;;;18.80;99.90;;;;;;4981326;28;20051;-83
2021/07/15 07:08:59;;;;;;;7.75;2.92;;;18.90;99.90;;;;;;4955124;29;20057;-82
2021/07/15 07:11:52;;;;;;;5.43;2.50;;;19.10;99.90;;;;;;4962141;29;20043;-84
2021/07/15 07:14:32;;;;;;;7.82;3.03;;;19.00;99.90;;;;;;4954804;29;20056;-82
2021/07/15 07:17:02;;;;;;;4.05;2.63;;;19.10;99.90;;;;;;4959015;29;20054;-83
2021/07/15 07:19:36;;;;;;;9.38;3.65;;;19.10;99.90;;;;;;4957440;29;20055;-84
2021/07/15 07:22:08;;;;;;;5.47;2.88;;;19.20;99.90;;;;;;4947536;29;20056;-85
2021/07/15 07:24:38;;;;;;;15.95;2.58;;;19.30;99.90;;;;;;4948036;28;20051;-83
2021/07/15 07:27:08;;;;;;;5.53;2.60;;;19.30;99.90;;;;;;4951762;29;20055;-82
2021/07/15 07:29:37;;;;;;;10.40;2.53;;;19.40;99.90;;;;;;4936659;29;20055;-82
2021/07/15 07:32:15;;;;;;;9.23;2.80;;;19.50;99.90;;;;;;4954758;29;20051;-84
2021/07/15 07:34:43;;;;;;;6.55;2.30;;;19.50;99.90;;;;;;4972200;29;20070;-84
2021/07/15 07:37:13;;;;;;;6.10;4.28;;;19.60;99.90;;;;;;4935005;29;20055;-82
2021/07/15 07:39:43;;;;;;;5.75;2.83;;;19.80;99.90;;;;;;4937930;29;20544;-81
2021/07/15 07:42:12;;;;;;;7.03;2.47;;;19.70;99.90;;;;;;4973038;29;20049;-83
2021/07/15 07:44:45;;;;;;;14.02;3.72;;;19.50;99.90;;;;;;4970976;29;20043;-83
2021/07/15 07:47:18;;;;;;;5.10;2.05;;;19.50;99.90;;;;;;4969513;29;20492;-84
2021/07/15 07:49:51;;;;;;;2.75;2.05;;;19.50;99.90;;;;;;4936488;28;20062;-83
2021/07/15 07:52:19;;;;;;;8.00;2.13;;;19.60;99.90;;;;;;4969225;29;20050;-86
2021/07/15 07:54:51;;;;;;;6.22;2.30;;;19.60;99.90;;;;;;4952067;29;20055;-86
2021/07/15 07:57:19;;;;;;;3.75;2.38;;;19.70;99.90;;;;;;4936581;29;20048;-84
2021/07/15 07:59:53;;;;;;;4.38;1.92;;;19.80;99.90;;;;;;4951824;29;20048;-84
2021/07/15 08:02:24;;;;;;;8.20;2.70;;;20.80;99.90;;;;;;4949074;28;20050;-82
2021/07/15 08:04:58;;;;;;;5.00;2.03;;;20.00;99.90;;;;;;4990232;28;20042;-85
2021/07/15 08:07:29;;;;;;;3.78;2.97;;;20.00;99.90;;;;;;4939662;28;20069;-83
2021/07/15 08:09:57;;;;;;;;;;;20.10;99.90;;;;;;4989326;28;20053;-83
2021/07/15 08:12:37;;;;;;;3.35;1.85;;;20.10;99.90;;;;;;4970316;28;19926;-85
2021/07/15 08:15:11;;;;;;;10.27;2.42;;;20.20;99.90;;;;;;4956887;28;20051;-82
2021/07/15 08:17:47;;;;;;;7.22;2.58;;;20.20;99.90;;;;;;4941901;28;20428;-84
2021/07/15 08:20:18;;;;;;;5.53;2.58;;;20.30;99.90;;;;;;4987175;28;20047;-83
2021/07/15 08:22:46;;;;;;;9.43;2.20;;;20.40;99.90;;;;;;4990744;28;20055;-85
2021/07/15 08:25:19;;;;;;;7.22;2.20;;;20.50;99.90;;;;;;4987833;28;20053;-83
2021/07/15 08:27:57;;;;;;;3.92;2.08;;;20.50;99.90;;;;;;4971425;28;20046;-85
2021/07/15 08:30:48;;;;;;;8.10;2.70;;;21.60;99.90;;;;;;4938565;29;20051;-82
2021/07/15 08:33:20;;;;;;;9.60;3.08;;;20.70;99.90;;;;;;4954494;28;20405;-83
2021/07/15 08:35:52;;;;;;;16.67;2.58;;;20.90;99.90;;;;;;4955274;28;20051;-84
2021/07/15 08:38:20;;;;;;;3.88;2.35;;;21.40;99.90;;;;;;4988348;28;20473;-83
2021/07/15 08:40:50;;;;;;;10.88;2.28;;;21.10;99.90;;;;;;4952741;28;20047;-83
2021/07/15 08:43:21;;;;;;;4.47;2.00;;;21.30;99.90;;;;;;4970353;28;20042;-83
2021/07/15 08:45:52;;;;;;;9.00;2.78;;;21.40;99.90;;;;;;4951525;28;20058;-82
2021/07/15 08:48:23;;;;;;;5.07;2.13;;;21.40;99.90;;;;;;4985621;28;20043;-83
2021/07/15 08:50:51;;;;;;;4.10;1.92;;;21.40;99.90;;;;;;4984008;28;20042;-82
2021/07/15 08:53:23;;;;;;;21.05;4.57;;;21.50;99.90;;;;;;4971634;28;20050;-83
2021/07/15 08:58:59;;;;;;;7.20;2.00;;;21.80;99.90;;;;;;4956050;28;20057;-85
2021/07/15 09:01:36;;;;;;;4.85;2.05;;;22.00;99.90;;;;;;4988438;28;20053;-84
2021/07/15 09:04:14;;;;;;;4.65;2.40;;;22.20;99.90;;;;;;4955484;28;20059;-84
2021/07/15 09:06:56;;;;;;;5.28;2.25;;;22.40;99.90;;;;;;4969014;28;20035;-83
2021/07/15 09:09:27;;;;;;;7.65;2.70;;;22.50;99.90;;;;;;4970509;28;20057;-84
2021/07/15 09:12:08;;;;;;;8.77;2.28;;;23.20;99.80;;;;;;4986588;28;20046;-84
2021/07/15 09:14:48;;;;;;;5.57;1.90;;;22.90;99.90;;;;;;4963726;28;20066;-84
2021/07/15 09:17:36;;;;;;;11.07;2.42;;;22.80;99.20;;;;;;4985085;28;20512;-85
2021/07/15 09:20:14;;;;;;;4.53;1.77;;;22.90;98.90;;;;;;4954354;28;20054;-84
2021/07/15 09:22:59;;;;;;;6.80;2.47;;;22.90;98.90;;;;;;4970054;28;20122;-85
2021/07/15 09:25:41;;;;;;;5.43;3.58;;;22.90;98.90;;;;;;4986961;28;20364;-83
2021/07/15 09:28:21;;;;;;;3.70;2.28;;;23.00;98.90;;;;;;4965974;28;20043;-85
2021/07/15 09:31:22;;;;;;;3.58;1.80;;;23.10;99.20;;;;;;4971604;28;20054;-84
2021/07/15 09:33:55;;;;;;;7.18;1.77;;;23.20;99.00;;;;;;4985749;28;20051;-83
2021/07/15 09:36:24;;;;;;;2.80;1.50;;;23.30;98.80;;;;;;4970447;28;20046;-84
2021/07/15 09:39:02;;;;;;;3.22;1.55;;;23.20;99.00;;;;;;4950348;28;20047;-83
2021/07/15 09:42:10;;;;;;;4.50;1.67;;;23.20;98.30;;;;;;4971410;28;20047;-83
2021/07/15 09:44:51;;;;;;;5.60;1.67;;;23.10;98.50;;;;;;4951107;28;20047;-83
2021/07/15 09:47:44;;;;;;;3.83;1.92;;;22.70;98.10;;;;;;4986861;28;20047;-84
2021/07/15 09:50:19;;;;;;;7.07;2.20;;;22.70;98.30;;;;;;4970605;28;20067;-84
2021/07/15 09:52:52;;;;;;;5.57;2.60;;;22.70;99.40;;;;;;4986033;28;20041;-84
2021/07/15 09:55:26;;;;;;;3.95;2.40;;;22.60;98.70;;;;;;4953738;28;20050;-84
2021/07/15 09:58:13;;;;;;;8.15;3.00;;;22.70;98.50;;;;;;4983975;28;20047;-84
2021/07/15 10:00:46;;;;;;;4.20;2.53;;;22.80;98.50;;;;;;4986650;28;20050;-82
2021/07/15 10:03:16;;;;;;;4.05;2.63;;;22.80;98.60;;;;;;4967298;29;20051;-83
2021/07/15 10:05:55;;;;;;;5.07;2.20;;;22.90;98.90;;;;;;4951063;29;20502;-84
2021/07/15 10:08:27;;;;;;;5.82;2.20;;;22.90;98.60;;;;;;4950648;29;20065;-82
2021/07/15 10:11:11;;;;;;;6.13;2.38;;;23.50;98.70;;;;;;4950371;29;20424;-83
2021/07/15 10:13:49;;;;;;;3.92;2.05;;;22.90;98.60;;;;;;4946891;29;20058;-85
2021/07/15 10:16:30;;;;;;;5.53;2.58;;;22.90;98.50;;;;;;4951180;29;20047;-84
2021/07/15 10:19:06;;;;;;;7.32;3.05;;;22.80;98.50;;;;;;4951501;29;20058;-84
2021/07/15 10:21:37;;;;;;;8.10;3.33;;;22.70;98.60;;;;;;4940699;28;20051;-83
2021/07/15 10:24:25;;;;;;;5.18;2.95;;;22.20;98.60;;;;;;4963147;28;20069;-82
2021/07/15 10:27:11;;;;;;;4.95;3.33;;;22.50;98.70;;;;;;4959169;29;20065;-82
2021/07/15 10:29:45;;;;;;;5.00;2.88;;;22.40;99.00;;;;;;4961332;29;20055;-83
2021/07/15 10:32:16;;;;;;;7.63;3.25;;;22.40;99.10;;;;;;4964690;28;20050;-83
2021/07/15 10:34:52;;;;;;;7.45;3.35;;;22.20;99.30;;;;;;4964243;29;20051;-83
2021/07/15 10:37:21;;;;;;;8.43;4.38;;;22.30;99.30;;;;;;4933702;29;20123;-84
2021/07/15 10:39:53;;;;;;;11.43;3.33;;;22.40;99.60;;;;;;4948266;29;20370;-85
2021/07/15 10:42:21;;;;;;;8.52;3.28;;;22.60;99.30;;;;;;4946225;29;20050;-83
2021/07/15 10:44:53;;;;;;;7.80;3.63;;;22.60;99.20;;;;;;4964946;29;20067;-85
2021/07/15 10:47:21;;;;;;;;;;;22.70;99.10;;;;;;4930827;29;20039;-83
2021/07/15 10:49:50;;;;;;;6.32;2.92;;;22.70;99.00;;;;;;4948153;29;19930;-83
2021/07/15 10:52:24;;;;;;;13.70;4.13;;;22.80;99.10;;;;;;4943062;29;20083;-84
2021/07/15 10:54:55;;;;;;;7.30;3.80;;;22.80;98.70;;;;;;4917660;29;20055;-84
2021/07/15 10:57:25;;;;;;;5.60;3.25;;;22.80;98.40;;;;;;4948888;29;20046;-82
2021/07/15 11:00:20;;;;;;;7.40;2.90;;;22.80;98.80;;;;;;4965781;29;20074;-82
2021/07/15 11:03:11;;;;;;;4.65;2.80;;;22.80;97.90;;;;;;4966935;28;20058;-83
2021/07/15 11:05:46;;;;;;;;;;;21.30;97.50;;;;;;4968049;29;20051;-83
2021/07/15 11:08:16;;;;;;;5.35;3.08;;;22.10;97.50;;;;;;4934436;29;19922;-84
2021/07/15 11:10:58;;;;;;;6.25;2.97;;;22.70;98.00;;;;;;4953894;29;20213;-83
2021/07/15 11:13:33;;;;;;;4.10;2.65;;;22.80;98.00;;;;;;4945037;29;20055;-85
2021/07/15 11:16:07;;;;;;;;;;;22.50;97.80;;;;;;4959157;29;20051;-85
2021/07/15 11:18:43;;;;;;;8.13;4.43;;;22.80;97.50;;;;;;4949191;29;19926;-83
2021/07/15 11:21:26;;;;;;;5.78;3.03;;;22.80;98.50;;;;;;4966581;29;20043;-82
2021/07/15 11:24:20;;;;;;;5.20;3.70;;;22.80;98.20;;;;;;4937434;29;20066;-85
2021/07/15 11:26:49;;;;;;;10.20;3.70;;;22.80;97.90;;;;;;4971257;28;20059;-82
2021/07/15 11:29:49;;;;;;;4.10;3.40;;;22.80;98.60;;;;;;4937080;29;20058;-82
2021/07/15 11:32:28;;;;;;;7.00;4.95;;;22.90;97.90;;;;;;4937715;29;20047;-84
2021/07/15 11:34:56;;;;;;;5.95;3.67;;;23.00;97.90;;;;;;4963368;28;20057;-84
2021/07/15 11:37:36;;;;;;;8.02;3.20;;;23.20;97.80;;;;;;4970823;29;20047;-86
2021/07/15 11:40:39;;;;;;;5.95;3.20;;;22.50;97.40;;;;;;4969464;28;20055;-83
2021/07/15 11:43:35;;;;;;;12.05;2.85;;;23.40;96.90;;;;;;4938440;29;20049;-88
2021/07/15 11:46:11;;;;;;;4.63;2.97;;;23.40;96.40;;;;;;4922479;29;20047;-88
2021/07/15 11:49:00;;;;;;;4.03;2.78;;;23.30;96.50;;;;;;4938451;29;20043;-89
2021/07/15 11:52:00;;;;;;;6.30;2.85;;;23.00;96.80;;;;;;4928266;28;20051;-88
2021/07/15 11:54:46;;;;;;;7.45;3.50;;;23.00;96.90;;;;;;4953918;29;20055;-90
2021/07/15 11:57:46;;;;;;;4.65;2.92;;;23.00;97.00;;;;;;4955576;29;20059;-89
2021/07/15 12:00:22;;;;;;;4.65;3.00;;;22.70;97.00;;;;;;4922678;29;20063;-89
2021/07/15 12:03:16;;;;;;;5.05;3.50;;;22.70;97.10;;;;;;4968006;29;20063;-89
2021/07/15 12:05:54;;;;;;;7.60;2.75;;;22.90;97.20;;;;;;4922526;29;20056;-90
2021/07/15 12:08:29;;;;;;;11.68;3.95;;;22.40;97.20;;;;;;4952653;28;20055;-89
2021/07/15 12:11:35;;;;;;;6.35;3.58;;;23.30;97.10;;;;;;4937691;29;20055;-90
2021/07/15 12:15:03;;;;;;;7.07;3.15;;;23.40;97.10;;;;;;4930557;29;20058;-89
2021/07/15 12:17:34;;;;;;;6.45;2.80;;;23.60;96.80;;;;;;4936425;29;20067;-89
2021/07/15 12:20:03;;;;;;;6.82;3.75;;;23.70;96.60;;;;;;4938098;29;20066;-88
2021/07/15 12:22:44;;;;;;;6.18;3.25;;;23.70;96.10;;;;;;4951773;29;20071;-89
2021/07/15 12:25:28;;;;;;;7.07;3.63;;;23.70;96.10;;;;;;4936842;29;20047;-91
2021/07/15 12:28:05;;;;;;;11.05;3.40;;;23.60;96.00;;;;;;4947638;29;20051;-87
2021/07/15 12:31:32;;;;;;;4.00;2.10;;;23.50;96.10;;;;;;4950962;29;20059;-90
2021/07/15 12:34:27;;;;;;;3.22;2.33;;;23.40;96.40;;;;;;4953216;28;20047;-89
2021/07/15 12:36:59;;;;;;;4.35;2.33;;;23.40;96.10;;;;;;4937128;29;20055;-91
2021/07/15 12:39:36;;;;;;;4.45;2.15;;;23.70;96.10;;;;;;4949463;29;20044;-89
2021/07/15 12:42:18;;;;;;;8.75;3.17;;;23.10;95.70;;;;;;4921285;29;20496;-88
2021/07/15 12:44:51;;;;;;;8.10;2.70;;;23.80;95.40;;;;;;4951149;29;20051;-89
2021/07/15 12:47:22;;;;;;;3.97;2.92;;;24.90;96.20;;;;;;4933473;29;20059;-88
2021/07/15 12:49:56;;;;;;;5.78;2.60;;;22.80;95.50;;;;;;4960309;29;20057;-90
2021/07/15 12:52:25;;;;;;;7.85;2.47;;;23.50;95.50;;;;;;4937650;29;20053;-87
2021/07/15 12:54:55;;;;;;;4.45;2.70;;;23.80;96.00;;;;;;4937779;29;20058;-90
2021/07/15 12:57:29;;;;;;;5.82;2.97;;;23.80;95.90;;;;;;4937512;29;20058;-88
2021/07/15 13:00:11;;;;;;;5.70;2.63;;;23.50;95.60;;;;;;4940526;28;20054;-89
2021/07/15 13:02:46;;;;;;;7.43;2.90;;;23.70;95.60;;;;;;4928172;29;20057;-89
2021/07/15 13:05:45;;;;;;;7.28;3.10;;;23.70;95.70;;;;;;4953487;29;20057;-89
2021/07/15 13:08:16;;;;;;;8.82;2.50;;;23.80;95.70;;;;;;4931983;29;20140;-90
2021/07/15 13:17:02;;;;;;;5.72;2.40;;;24.20;95.10;;;;;;4949187;29;20062;-89
2021/07/15 13:20:03;;;;;;;6.38;3.00;;;24.20;94.60;;;;;;4933896;28;20058;-89
2021/07/15 13:23:08;;;;;;;6.45;2.70;;;24.10;94.30;;;;;;4953445;29;20055;-87
2021/07/15 13:25:50;;;;;;;6.70;3.85;;;25.80;95.00;;;;;;4937930;29;20062;-89
2021/07/15 13:28:24;;;;;;;8.32;3.50;;;24.10;94.90;;;;;;4948331;29;20055;-88
2021/07/15 13:31:32;;;;;;;3.95;2.63;;;24.00;94.90;;;;;;4932927;29;20062;-86
2021/07/15 13:34:09;;;;;;;4.35;2.83;;;24.00;95.10;;;;;;4945707;29;20047;-82
2021/07/15 13:36:55;;;;;;;11.20;2.78;;;23.90;95.10;;;;;;4946763;29;20500;-82
2021/07/15 13:39:44;;;;;;;4.18;2.38;;;23.90;94.50;;;;;;4949215;29;20062;-83